Time;durP1;ratioP1;P1;durP2;ratioP2;P2;SDS_P1;SDS_P2;PMS_P1;PMS_P2;Temp;Humidity;BMP_temperature;BMP_pressure;BME280_temperature;BME280_humidity;BME280_pressure;Samples;Min_cycle;Max_cycle;Signal;HPM_P1;HPM_P2
2023/10/28 00:02:02;;;;;;;;;;;;;;;9.13;100.00;98885.44;5062560;28;20352;-63
2023/10/28 00:04:31;;;;;;;;;;;;;;;9.12;100.00;98881.16;5069475;28;20050;-65
2023/10/28 00:06:59;;;;;;;;;;;;;;;9.12;100.00;98884.59;5055554;28;19921;-60
2023/10/28 00:09:26;;;;;;;;;;;;;;;9.13;100.00;98888.06;5051626;28;20456;-65
2023/10/28 00:11:53;;;;;;;;;;;;;;;9.12;100.00;98889.84;5051453;28;20026;-64
2023/10/28 00:14:21;;;;;;;;;;;;;;;9.12;100.00;98895.09;5063685;28;20024;-64
2023/10/28 00:16:49;;;;;;;;;;;;;;;9.12;100.00;98900.34;5066137;28;20259;-62
2023/10/28 00:19:16;;;;;;;;;;;;;;;9.13;100.00;98888.88;5072152;28;20285;-63
2023/10/28 00:21:43;;;;;;;;;;;;;;;9.17;100.00;98904.41;5063281;28;19960;-65
2023/10/28 00:24:10;;;;;;;;;;;;;;;9.15;100.00;98895.81;5076746;28;20325;-61
2023/10/28 00:26:37;;;;;;;;;;;;;;;9.15;100.00;98898.44;5051131;28;20007;-64
2023/10/28 00:29:04;;;;;;;;;;;;;;;9.13;100.00;98890.69;5064795;28;19928;-64
2023/10/28 00:31:31;;;;;;;;;;;;;;;9.11;100.00;98889.97;5048520;28;19927;-65
2023/10/28 00:33:58;;;;;;;;;;;;;;;9.09;100.00;98895.34;5060483;28;19966;-63
2023/10/28 00:36:25;;;;;;;;;;;;;;;9.10;100.00;98897.03;5070406;28;19920;-63
2023/10/28 00:38:53;;;;;;;;;;;;;;;9.12;100.00;98896.91;5071918;28;19962;-64
2023/10/28 00:41:20;;;;;;;;;;;;;;;9.13;100.00;98893.31;5072505;28;19929;-63
2023/10/28 00:43:48;;;;;;;;;;;;;;;9.10;100.00;98897.03;5062846;28;19963;-65
2023/10/28 00:46:15;;;;;;;;;;;;;;;9.08;100.00;98898.94;5051444;28;20006;-64
2023/10/28 00:48:42;;;;;;;;;;;;;;;9.07;100.00;98897.25;5058370;28;19955;-63
2023/10/28 00:51:09;;;;;;;;;;;;;;;9.08;100.00;98904.19;5068002;28;19956;-63
2023/10/28 00:53:36;;;;;;;;;;;;;;;9.05;100.00;98901.81;5069099;28;20027;-65
2023/10/28 00:56:03;;;;;;;;;;;;;;;9.05;100.00;98896.56;5064908;28;20499;-63
2023/10/28 00:58:30;;;;;;;;;;;;;;;9.06;100.00;98905.28;5065897;28;20020;-63
2023/10/28 01:00:58;;;;;;;;;;;;;;;9.05;100.00;98893.94;5049514;28;19944;-63
2023/10/28 01:03:27;;;;;;;;;;;;;;;9.02;100.00;98896.81;5049309;28;20386;-61
2023/10/28 01:05:56;;;;;;;;;;;;;;;9.02;100.00;98891.56;5055269;28;20285;-62
2023/10/28 01:08:23;;;;;;;;;;;;;;;8.99;100.00;98894.41;5064568;28;20011;-64
2023/10/28 01:10:50;;;;;;;;;;;;;;;9.00;100.00;98892.63;5067798;28;19925;-59
2023/10/28 01:13:18;;;;;;;;;;;;;;;9.00;100.00;98892.63;5066649;28;20334;-63
2023/10/28 01:15:45;;;;;;;;;;;;;;;8.99;100.00;98893.59;5061073;28;20348;-61
2023/10/28 01:18:13;;;;;;;;;;;;;;;8.98;100.00;98892.75;5048881;28;19965;-65
2023/10/28 01:20:40;;;;;;;;;;;;;;;8.99;100.00;98894.41;5044412;28;20016;-63
2023/10/28 01:23:08;;;;;;;;;;;;;;;8.98;100.00;98890.13;5048928;28;19974;-61
2023/10/28 01:25:35;;;;;;;;;;;;;;;8.95;100.00;98900.03;5065504;28;20390;-62
2023/10/28 01:28:02;;;;;;;;;;;;;;;8.95;100.00;98900.88;5061314;28;20329;-62
2023/10/28 01:30:29;;;;;;;;;;;;;;;8.95;100.00;98898.25;5069590;28;20011;-64
2023/10/28 01:32:56;;;;;;;;;;;;;;;8.98;100.00;98895.38;5075174;28;19921;-64
2023/10/28 01:35:24;;;;;;;;;;;;;;;8.97;100.00;98892.88;5065323;28;19975;-62
2023/10/28 01:37:51;;;;;;;;;;;;;;;8.95;100.00;98884.28;5068319;28;20011;-64
2023/10/28 01:40:19;;;;;;;;;;;;;;;8.94;100.00;98890.50;5068103;28;20229;-63
2023/10/28 01:42:46;;;;;;;;;;;;;;;8.95;100.00;98892.16;5067579;28;19920;-65
2023/10/28 01:45:13;;;;;;;;;;;;;;;8.96;100.00;98888.56;5066741;28;20355;-61
2023/10/28 01:47:41;;;;;;;;;;;;;;;8.97;100.00;98892.88;5069603;28;20056;-63
2023/10/28 01:50:11;;;;;;;;;;;;;;;8.97;100.00;98890.25;5059372;28;20424;-62
2023/10/28 01:52:39;;;;;;;;;;;;;;;8.97;100.00;98887.63;5066889;28;19975;-62
2023/10/28 01:55:11;;;;;;;;;;;;;;;8.97;100.00;98890.25;5058600;28;19967;-63
2023/10/28 01:57:38;;;;;;;;;;;;;;;8.97;100.00;98885.84;5061554;28;19924;-62
2023/10/28 02:00:07;;;;;;;;;;;;;;;8.94;100.00;98888.69;5062908;28;20305;-62
2023/10/28 02:02:34;;;;;;;;;;;;;;;8.94;100.00;98886.09;5049826;28;19924;-61
2023/10/28 02:05:02;;;;;;;;;;;;;;;8.96;100.00;98888.56;5067636;28;19963;-63
2023/10/28 02:07:29;;;;;;;;;;;;;;;8.95;100.00;98887.75;5062144;28;19967;-63
2023/10/28 02:09:56;;;;;;;;;;;;;;;8.95;100.00;98890.38;5065757;28;19990;-61
2023/10/28 02:12:24;;;;;;;;;;;;;;;8.97;100.00;98893.72;5066527;28;19967;-62
2023/10/28 02:14:51;;;;;;;;;;;;;;;8.97;100.00;98888.47;5063808;28;19935;-62
2023/10/28 02:17:19;;;;;;;;;;;;;;;8.99;100.00;98888.34;5055128;28;19981;-63
2023/10/28 02:19:46;;;;;;;;;;;;;;;8.99;100.00;98889.16;5064702;28;19957;-63
2023/10/28 02:22:14;;;;;;;;;;;;;;;9.00;100.00;98895.25;5084818;28;20019;-64
2023/10/28 02:24:41;;;;;;;;;;;;;;;8.99;100.00;98899.66;5071506;28;19921;-63
2023/10/28 02:27:10;;;;;;;;;;;;;;;8.98;100.00;98902.41;5061337;28;19927;-63
2023/10/28 02:29:37;;;;;;;;;;;;;;;8.97;100.00;98900.75;5070225;28;20417;-64
2023/10/28 02:32:08;;;;;;;;;;;;;;;8.95;100.00;98897.41;5076155;28;19928;-63
2023/10/28 02:34:36;;;;;;;;;;;;;;;8.96;100.00;98897.31;5070977;22;20483;-58
2023/10/28 02:37:04;;;;;;;;;;;;;;;8.96;100.00;98904.31;5042663;28;20360;-57
2023/10/28 02:39:31;;;;;;;;;;;;;;;8.94;100.00;98899.19;5031421;28;20004;-60
2023/10/28 02:42:00;;;;;;;;;;;;;;;8.95;100.00;98902.66;5050623;28;20314;-60
2023/10/28 02:44:29;;;;;;;;;;;;;;;8.96;100.00;98906.94;5037466;28;20295;-58
2023/10/28 02:46:58;;;;;;;;;;;;;;;8.98;100.00;98912.91;5048257;28;19927;-58
2023/10/28 02:49:25;;;;;;;;;;;;;;;8.95;100.00;98907.91;5032311;28;20386;-57
2023/10/28 02:51:52;;;;;;;;;;;;;;;8.92;100.00;98906.38;5055157;28;20062;-60
2023/10/28 02:54:20;;;;;;;;;;;;;;;8.90;100.00;98910.91;5051832;28;19951;-57
2023/10/28 02:56:47;;;;;;;;;;;;;;;8.92;100.00;98906.38;5028322;28;19960;-60
2023/10/28 02:59:14;;;;;;;;;;;;;;;8.93;100.00;98909.84;5049228;28;19928;-59
2023/10/28 03:01:41;;;;;;;;;;;;;;;8.91;100.00;98903.84;5057864;28;20008;-58
2023/10/28 03:04:08;;;;;;;;;;;;;;;8.92;100.00;98910.78;5054336;28;19921;-59
2023/10/28 03:06:35;;;;;;;;;;;;;;;8.91;100.00;98903.84;5045598;28;19998;-58
2023/10/28 03:09:02;;;;;;;;;;;;;;;8.92;100.00;98913.41;5052672;28;19921;-59
2023/10/28 03:11:29;;;;;;;;;;;;;;;8.91;100.00;98909.94;5051603;28;19925;-59
2023/10/28 03:13:56;;;;;;;;;;;;;;;8.92;100.00;98914.25;5050737;28;20038;-59
2023/10/28 03:16:24;;;;;;;;;;;;;;;8.93;100.00;98909.84;5046104;28;19920;-55
2023/10/28 03:18:52;;;;;;;;;;;;;;;8.91;100.00;98912.56;5054251;28;19965;-59
2023/10/28 03:21:19;;;;;;;;;;;;;;;8.93;100.00;98907.22;5033121;28;19963;-60
2023/10/28 03:23:46;;;;;;;;;;;;;;;8.94;100.00;98911.50;5051618;28;19920;-59
2023/10/28 03:26:14;;;;;;;;;;;;;;;8.95;100.00;98915.78;5045146;28;19970;-57
2023/10/28 03:28:41;;;;;;;;;;;;;;;8.94;100.00;98919.38;5045885;28;19921;-58
2023/10/28 03:31:11;;;;;;;;;;;;;;;8.92;100.00;98924.75;5043694;28;19948;-56
2023/10/28 03:33:41;;;;;;;;;;;;;;;8.91;100.00;98920.44;5024655;28;19990;-60
2023/10/28 03:36:11;;;;;;;;;;;;;;;8.91;100.00;98930.94;5029266;28;19925;-59
2023/10/28 03:38:38;;;;;;;;;;;;;;;8.90;100.00;98929.25;5013828;28;19956;-59
2023/10/28 03:41:06;;;;;;;;;;;;;;;8.87;100.00;98934.75;5026928;28;19928;-59
2023/10/28 03:43:33;;;;;;;;;;;;;;;8.88;100.00;98939.06;5022320;28;20438;-57
2023/10/28 03:46:00;;;;;;;;;;;;;;;8.87;100.00;98934.75;5011475;28;20007;-57
2023/10/28 03:48:28;;;;;;;;;;;;;;;8.86;100.00;98940.94;5029188;28;19921;-62
2023/10/28 03:50:58;;;;;;;;;;;;;;;8.82;100.00;98936.91;5027543;28;19925;-59
2023/10/28 03:53:25;;;;;;;;;;;;;;;8.83;100.00;98941.22;5003994;28;20431;-59
2023/10/28 03:55:52;;;;;;;;;;;;;;;8.83;100.00;98939.44;5027504;28;20287;-59
2023/10/28 03:58:19;;;;;;;;;;;;;;;8.84;100.00;98945.50;5028755;28;19965;-59
2023/10/28 04:00:53;;;;;;;;;;;;;;;8.83;100.00;98939.44;5013608;28;19971;-59
2023/10/28 04:03:21;;;;;;;;;;;;;;;8.86;100.00;98946.19;5029337;28;19922;-59
2023/10/28 04:05:48;;;;;;;;;;;;;;;8.85;100.00;98948.00;5028938;28;19964;-60
2023/10/28 04:08:15;;;;;;;;;;;;;;;8.84;100.00;98951.59;5012573;28;20017;-60
2023/10/28 04:10:43;;;;;;;;;;;;;;;8.86;100.00;98961.94;5029946;28;20275;-60
2023/10/28 04:13:12;;;;;;;;;;;;;;;8.85;100.00;98957.66;5024379;28;19925;-61
2023/10/28 04:15:40;;;;;;;;;;;;;;;8.85;100.00;98961.13;5028898;28;19935;-58
2023/10/28 04:18:07;;;;;;;;;;;;;;;8.85;100.00;98957.66;5025324;28;20012;-58
2023/10/28 04:20:35;;;;;;;;;;;;;;;8.81;100.00;98958.84;5026581;28;19929;-61
2023/10/28 04:23:03;;;;;;;;;;;;;;;8.79;100.00;98958.16;5025830;28;19944;-60
2023/10/28 04:25:30;;;;;;;;;;;;;;;8.77;100.00;98960.88;5025461;28;19936;-57
2023/10/28 04:27:57;;;;;;;;;;;;;;;8.77;100.00;98957.41;5025002;28;19956;-58
2023/10/28 04:30:24;;;;;;;;;;;;;;;8.77;100.00;98960.03;5024969;28;20002;-60
2023/10/28 04:32:54;;;;;;;;;;;;;;;8.73;100.00;98969.09;5046083;28;20386;-57
2023/10/28 04:35:21;;;;;;;;;;;;;;;8.73;100.00;98969.09;5047624;28;19944;-58
2023/10/28 04:37:55;;;;;;;;;;;;;;;8.74;100.00;98982.13;5049718;28;19966;-59
2023/10/28 04:40:22;;;;;;;;;;;;;;;8.71;100.00;98978.91;5021661;28;19960;-59
2023/10/28 04:42:49;;;;;;;;;;;;;;;8.72;100.00;98981.38;5022702;28;19920;-59
2023/10/28 04:45:16;;;;;;;;;;;;;;;8.71;100.00;98979.72;5048013;28;19960;-60
2023/10/28 04:47:43;;;;;;;;;;;;;;;8.73;100.00;98983.06;5052091;28;20293;-59
2023/10/28 04:50:11;;;;;;;;;;;;;;;8.74;100.00;98970.81;5039053;28;20012;-59
2023/10/28 04:52:38;;;;;;;;;;;;;;;8.74;100.00;98978.66;5049500;28;20019;-59
2023/10/28 04:55:05;;;;;;;;;;;;;;;8.70;100.00;98979.84;5050632;28;19952;-62
2023/10/28 04:57:32;;;;;;;;;;;;;;;8.70;100.00;98980.69;5048861;28;20437;-59
2023/10/28 04:59:59;;;;;;;;;;;;;;;8.70;100.00;98985.09;5044673;28;19951;-60
2023/10/28 05:02:26;;;;;;;;;;;;;;;8.69;100.00;98980.78;5042329;28;19921;-61
2023/10/28 05:04:53;;;;;;;;;;;;;;;8.67;100.00;98980.09;5048798;28;20005;-54
2023/10/28 05:07:20;;;;;;;;;;;;;;;8.65;100.00;98982.84;5053049;28;19924;-58
2023/10/28 05:09:47;;;;;;;;;;;;;;;8.64;100.00;98978.53;5032006;28;19929;-60
2023/10/28 05:12:15;;;;;;;;;;;;;;;8.64;100.00;98975.91;5048338;28;19982;-61
2023/10/28 05:14:42;;;;;;;;;;;;;;;8.66;100.00;98988.91;5048626;28;19920;-57
2023/10/28 05:17:09;;;;;;;;;;;;;;;8.63;100.00;99001.28;5039918;28;20389;-58
2023/10/28 05:19:37;;;;;;;;;;;;;;;8.62;100.00;99010.13;5054161;28;19963;-60
2023/10/28 05:22:04;;;;;;;;;;;;;;;8.64;100.00;99020.50;5029942;28;19992;-58
2023/10/28 05:24:31;;;;;;;;;;;;;;;8.65;100.00;99016.09;5051170;28;19931;-57
2023/10/28 05:26:58;;;;;;;;;;;;;;;8.65;100.00;99021.34;5048113;28;19924;-58
2023/10/28 05:29:25;;;;;;;;;;;;;;;8.67;100.00;99022.06;5047094;28;19932;-57
2023/10/28 05:31:56;;;;;;;;;;;;;;;8.67;100.00;99016.81;5043776;28;19988;-59
2023/10/28 05:34:23;;;;;;;;;;;;;;;8.69;100.00;99022.75;5043793;28;19921;-60
2023/10/28 05:36:51;;;;;;;;;;;;;;;8.69;100.00;99028.00;5047730;28;19921;-60
2023/10/28 05:39:20;;;;;;;;;;;;;;;8.72;100.00;99030.41;5049878;28;20445;-59
2023/10/28 05:41:48;;;;;;;;;;;;;;;8.73;100.00;99032.06;5035506;28;20080;-58
2023/10/28 05:44:15;;;;;;;;;;;;;;;8.74;100.00;99036.38;5043435;28;20305;-59
2023/10/28 05:46:43;;;;;;;;;;;;;;;8.70;100.00;99035.78;5050452;28;19924;-59
2023/10/28 05:49:12;;;;;;;;;;;;;;;8.71;100.00;99039.25;5053415;28;19929;-57
2023/10/28 05:51:39;;;;;;;;;;;;;;;8.69;100.00;99036.75;5046840;28;19960;-57
2023/10/28 05:54:06;;;;;;;;;;;;;;;8.68;100.00;99040.28;5045365;28;20529;-57
2023/10/28 05:56:35;;;;;;;;;;;;;;;8.70;100.00;99045.44;5049518;28;19921;-59
2023/10/28 05:59:02;;;;;;;;;;;;;;;8.71;100.00;99036.63;5048959;28;20354;-57
2023/10/28 06:01:29;;;;;;;;;;;;;;;8.67;100.00;99041.25;5050828;28;19921;-58
2023/10/28 06:03:56;;;;;;;;;;;;;;;8.66;100.00;99046.63;5050094;28;19924;-56
2023/10/28 06:06:23;;;;;;;;;;;;;;;8.62;100.00;99044.22;5046893;28;20011;-56
2023/10/28 06:08:50;;;;;;;;;;;;;;;8.67;100.00;99053.53;5050478;28;20302;-58
2023/10/28 06:11:17;;;;;;;;;;;;;;;8.71;100.00;99065.47;5042179;28;20051;-60
2023/10/28 06:13:45;;;;;;;;;;;;;;;8.72;100.00;99069.75;5051058;28;20037;-58
2023/10/28 06:16:12;;;;;;;;;;;;;;;8.75;100.00;99083.50;5045176;28;19932;-60
2023/10/28 06:18:39;;;;;;;;;;;;;;;8.76;100.00;99077.28;5052386;28;19956;-55
2023/10/28 06:21:06;;;;;;;;;;;;;;;8.80;100.00;99070.03;5043402;28;19920;-58
2023/10/28 06:23:33;;;;;;;;;;;;;;;8.79;100.00;99069.19;5043252;28;19964;-59
2023/10/28 06:26:00;;;;;;;;;;;;;;;8.81;100.00;99063.81;5049774;28;19921;-59
2023/10/28 06:28:28;;;;;;;;;;;;;;;8.82;100.00;99071.56;5043934;28;20358;-56
2023/10/28 06:30:55;;;;;;;;;;;;;;;8.84;100.00;99074.09;5044509;28;19920;-57
2023/10/28 06:33:24;;;;;;;;;;;;;;;8.89;100.00;99079.81;5030341;28;19920;-59
2023/10/28 06:35:51;;;;;;;;;;;;;;;8.91;100.00;99077.88;5048885;28;19990;-59
2023/10/28 06:38:18;;;;;;;;;;;;;;;8.91;100.00;99084.94;5039231;28;20309;-58
2023/10/28 06:40:48;;;;;;;;;;;;;;;8.95;100.00;99089.81;5048670;28;20486;-59
2023/10/28 06:43:15;;;;;;;;;;;;;;;8.98;100.00;99092.22;5041301;28;19956;-59
2023/10/28 06:45:43;;;;;;;;;;;;;;;9.00;100.00;99100.81;5045526;28;20016;-57
2023/10/28 06:48:10;;;;;;;;;;;;;;;9.01;100.00;99105.13;5046007;28;19947;-58
2023/10/28 06:50:37;;;;;;;;;;;;;;;9.05;100.00;99109.19;5048268;28;19982;-57
2023/10/28 06:53:04;;;;;;;;;;;;;;;9.07;100.00;99115.16;5044943;28;19990;-59
2023/10/28 06:55:32;;;;;;;;;;;;;;;9.10;100.00;99121.97;5048117;28;19970;-59
2023/10/28 06:57:59;;;;;;;;;;;;;;;9.09;100.00;99123.72;5028073;28;20436;-59
2023/10/28 07:00:29;;;;;;;;;;;;;;;9.11;100.00;99132.34;5046764;28;20302;-59
2023/10/28 07:02:56;;;;;;;;;;;;;;;9.05;100.00;99131.94;5045568;28;19921;-59
2023/10/28 07:05:26;;;;;;;;;;;;;;;9.03;100.00;99139.13;5047984;28;19920;-58
2023/10/28 07:07:56;;;;;;;;;;;;;;;9.03;100.00;99141.75;5042130;28;19979;-58
2023/10/28 07:10:23;;;;;;;;;;;;;;;9.04;100.00;99148.66;5042782;28;19944;-57
2023/10/28 07:12:50;;;;;;;;;;;;;;;9.06;100.00;99155.47;5035767;28;19921;-60
2023/10/28 07:15:18;;;;;;;;;;;;;;;9.07;100.00;99151.91;5042962;28;20394;-58
2023/10/28 07:17:45;;;;;;;;;;;;;;;9.08;100.00;99158.81;5042617;28;19982;-59
2023/10/28 07:20:12;;;;;;;;;;;;;;;9.00;100.00;99162.97;5046240;28;19989;-59
2023/10/28 07:22:41;;;;;;;;;;;;;;;9.05;100.00;99171.31;5049493;28;19960;-58
2023/10/28 07:25:09;;;;;;;;;;;;;;;9.08;100.00;99163.22;5045127;28;19963;-57
2023/10/28 07:27:37;;;;;;;;;;;;;;;9.09;100.00;99168.34;5050056;28;19921;-57
2023/10/28 07:30:04;;;;;;;;;;;;;;;9.13;100.00;99174.22;5048105;28;20066;-58
2023/10/28 07:32:31;;;;;;;;;;;;;;;9.18;100.00;99176.47;5049691;28;19963;-59
2023/10/28 07:34:58;;;;;;;;;;;;;;;9.18;100.00;99174.69;5051149;28;19920;-56
2023/10/28 07:37:26;;;;;;;;;;;;;;;9.20;100.00;99185.09;5050313;28;20012;-55
2023/10/28 07:39:53;;;;;;;;;;;;;;;9.19;100.00;99192.13;5051491;28;19921;-57
2023/10/28 07:42:22;;;;;;;;;;;;;;;9.25;100.00;99191.66;5049283;28;20425;-58
2023/10/28 07:44:51;;;;;;;;;;;;;;;9.39;100.00;99196.69;5052539;28;20016;-60
2023/10/28 07:47:18;;;;;;;;;;;;;;;9.54;100.00;99192.03;5048927;28;19964;-58
2023/10/28 07:49:45;;;;;;;;;;;;;;;9.60;100.00;99196.84;5043668;28;19967;-58
2023/10/28 07:52:13;;;;;;;;;;;;;;;9.53;100.00;99195.63;5050861;28;19990;-59
2023/10/28 07:54:40;;;;;;;;;;;;;;;9.56;100.00;99197.19;5050486;28;19959;-55
2023/10/28 07:57:07;;;;;;;;;;;;;;;9.53;100.00;99200.03;5044866;28;19933;-59
2023/10/28 07:59:34;;;;;;;;;;;;;;;9.58;100.00;99196.09;5055693;28;19998;-59
2023/10/28 08:02:02;;;;;;;;;;;;;;;9.59;100.00;99202.19;5053156;28;19924;-59
2023/10/28 08:04:29;;;;;;;;;;;;;;;9.66;100.00;99202.56;5053462;28;19988;-59
2023/10/28 08:06:56;;;;;;;;;;;;;;;9.71;100.00;99216.19;5050627;28;20470;-55
2023/10/28 08:09:23;;;;;;;;;;;;;;;9.69;100.00;99220.72;5035739;28;20024;-59
2023/10/28 08:11:50;;;;;;;;;;;;;;;9.68;100.00;99222.53;5052016;28;19994;-59
2023/10/28 08:14:17;;;;;;;;;;;;;;;9.71;100.00;99226.69;5048200;28;19947;-60
2023/10/28 08:16:45;;;;;;;;;;;;;;;9.71;100.00;99229.31;5042777;28;19920;-58
2023/10/28 08:19:12;;;;;;;;;;;;;;;9.71;100.00;99234.56;5049171;28;19950;-59
2023/10/28 08:21:39;;;;;;;;;;;;;;;9.84;100.00;99233.50;5049132;28;21135;-58
2023/10/28 08:24:08;;;;;;;;;;;;;;;9.93;100.00;99231.13;5056482;28;19947;-59
2023/10/28 08:26:36;;;;;;;;;;;;;;;9.87;100.00;99240.31;5053221;28;20444;-59
2023/10/28 08:29:03;;;;;;;;;;;;;;;9.89;100.00;99238.41;5047814;28;19971;-59
2023/10/28 08:31:31;;;;;;;;;;;;;;;9.96;100.00;99242.22;5050245;28;20047;-60
2023/10/28 08:33:58;;;;;;;;;;;;;;;10.07;100.00;99246.63;5051927;28;19927;-60
2023/10/28 08:36:25;;;;;;;;;;;;;;;10.12;100.00;99233.97;5051715;28;20386;-59
2023/10/28 08:38:52;;;;;;;;;;;;;;;10.21;100.00;99245.53;5048118;28;19956;-59
2023/10/28 08:41:20;;;;;;;;;;;;;;;10.28;100.00;99246.78;5048654;28;20545;-60
2023/10/28 08:43:47;;;;;;;;;;;;;;;10.41;100.00;99246.63;5044386;28;19955;-60
2023/10/28 08:46:15;;;;;;;;;;;;;;;10.52;100.00;99243.97;5048167;28;19967;-60
2023/10/28 08:48:46;;;;;;;;;;;;;;;10.60;100.00;99250.28;5030000;28;19921;-59
2023/10/28 08:51:13;;;;;;;;;;;;;;;10.65;100.00;99252.53;5036992;28;19927;-61
2023/10/28 08:53:40;;;;;;;;;;;;;;;10.63;100.00;99262.38;5027145;28;20055;-59
2023/10/28 08:56:08;;;;;;;;;;;;;;;10.63;100.00;99268.47;5035943;28;19966;-59
2023/10/28 08:58:37;;;;;;;;;;;;;;;10.60;100.00;99273.13;5049290;28;19974;-59
2023/10/28 09:01:04;;;;;;;;;;;;;;;10.57;100.00;99276.00;5043070;28;19936;-60
2023/10/28 09:03:31;;;;;;;;;;;;;;;10.60;100.00;99283.66;5040569;28;20016;-59
2023/10/28 09:05:59;;;;;;;;;;;;;;;10.63;100.00;99289.50;5015136;28;20428;-59
2023/10/28 09:08:27;;;;;;;;;;;;;;;10.68;100.00;99289.16;5029172;28;19920;-61
2023/10/28 09:10:54;;;;;;;;;;;;;;;10.75;100.00;99289.47;5025595;28;19971;-60
2023/10/28 09:13:21;;;;;;;;;;;;;;;10.83;100.00;99289.69;5040457;28;19964;-62
2023/10/28 09:15:49;;;;;;;;;;;;;;;10.93;100.00;99289.78;5040673;28;19929;-60
2023/10/28 09:18:16;;;;;;;;;;;;;;;11.04;100.00;99300.28;5036712;28;19933;-60
2023/10/28 09:20:43;;;;;;;;;;;;;;;10.98;100.00;99301.59;5041941;28;19936;-60
2023/10/28 09:23:12;;;;;;;;;;;;;;;11.09;100.00;99298.94;5049138;28;19943;-60
2023/10/28 09:25:40;;;;;;;;;;;;;;;11.21;100.00;99309.41;5027391;28;19970;-62
2023/10/28 09:28:16;;;;;;;;;;;;;;;11.22;100.00;99319.00;5050754;28;19929;-63
2023/10/28 09:30:44;;;;;;;;;;;;;;;11.16;100.00;99323.78;5047330;28;19924;-59
2023/10/28 09:33:12;;;;;;;;;;;;;;;11.13;100.00;99325.88;5049304;28;19921;-60
2023/10/28 09:35:40;;;;;;;;;;;;;;;11.10;100.00;99323.47;5043546;28;19929;-58
2023/10/28 09:38:08;;;;;;;;;;;;;;;11.14;100.00;99323.09;5042315;28;19929;-57
2023/10/28 09:40:35;;;;;;;;;;;;;;;11.15;100.00;99330.03;5050693;28;19921;-60
2023/10/28 09:43:03;;;;;;;;;;;;;;;11.01;100.00;99326.84;5044486;28;20428;-58
2023/10/28 09:45:30;;;;;;;;;;;;;;;11.02;100.00;99325.88;5015379;28;19929;-57
2023/10/28 09:47:58;;;;;;;;;;;;;;;10.95;100.00;99325.56;5031995;28;19943;-59
2023/10/28 09:50:25;;;;;;;;;;;;;;;10.93;100.00;99322.19;5051407;28;19943;-58
2023/10/28 09:52:53;;;;;;;;;;;;;;;10.90;100.00;99330.38;5048425;28;20282;-59
2023/10/28 09:55:23;;;;;;;;;;;;;;;10.98;100.00;99329.72;5043974;28;19920;-57
2023/10/28 09:57:51;;;;;;;;;;;;;;;11.16;100.00;99328.22;5044281;28;19921;-58
2023/10/28 10:00:18;;;;;;;;;;;;;;;11.41;100.00;99319.16;5043100;28;19967;-59
2023/10/28 10:02:55;;;;;;;;;;;;;;;11.79;100.00;99318.56;5043145;28;19928;-58
2023/10/28 10:05:30;;;;;;;;;;;;;;;12.21;100.00;99326.44;5037238;28;19983;-58
2023/10/28 10:07:57;;;;;;;;;;;;;;;12.74;100.00;99325.34;5029124;28;19978;-58
2023/10/28 10:10:24;;;;;;;;;;;;;;;13.25;100.00;99322.53;5051140;28;20031;-58
2023/10/28 10:13:00;;;;;;;;;;;;;;;13.57;100.00;99318.75;5050536;28;20012;-59
2023/10/28 10:15:29;;;;;;;;;;;;;;;13.65;100.00;99319.72;5047990;28;19924;-56
2023/10/28 10:18:10;;;;;;;;;;;;;;;13.75;100.00;99324.16;5048724;28;19928;-58
2023/10/28 10:20:42;;;;;;;;;;;;;;;13.68;100.00;99324.69;5044195;28;20314;-59
2023/10/28 10:23:23;;;;;;;;;;;;;;;13.63;100.00;99326.94;5049174;28;19956;-59
2023/10/28 10:25:50;;;;;;;;;;;;;;;13.73;100.00;99316.34;5032483;28;20013;-65
2023/10/28 10:28:23;;;;;;;;;;;;;;;13.76;100.00;99324.00;5008830;28;20011;-63
2023/10/28 10:30:51;;;;;;;;;;;;;;;13.64;100.00;99325.13;5020760;28;19928;-62
2023/10/28 10:33:25;;;;;;;;;;;;;;;13.65;100.00;99319.72;5023736;28;19965;-62
2023/10/28 10:35:52;;;;;;;;;;;;;;;13.74;100.00;99314.56;5033534;28;19925;-62
2023/10/28 10:38:26;;;;;;;;;;;;;;;13.83;100.00;99324.28;5018084;28;19960;-62
2023/10/28 10:40:57;;;;;;;;;;;;;;;14.07;100.00;99329.91;5028342;28;19984;-62
2023/10/28 10:43:28;;;;;;;;;;;;;;;14.18;100.00;99323.59;5025822;28;19957;-62
2023/10/28 10:45:56;;;;;;;;;;;;;;;14.16;98.50;99334.34;5011942;28;19991;-62
2023/10/28 10:48:23;;;;;;;;;;;;;;;14.03;97.40;99338.28;5024687;28;19924;-63
2023/10/28 10:50:50;;;;;;;;;;;;;;;13.99;99.15;99340.38;4997755;28;19963;-63
2023/10/28 10:53:17;;;;;;;;;;;;;;;13.80;98.64;99343.91;5015504;28;19963;-63
2023/10/28 10:55:44;;;;;;;;;;;;;;;13.56;99.46;99339.06;5020782;28;19921;-62
2023/10/28 10:58:11;;;;;;;;;;;;;;;13.39;99.97;99334.50;5022702;28;20272;-63
2023/10/28 11:00:38;;;;;;;;;;;;;;;13.40;100.00;99338.78;5032643;28;19921;-62
2023/10/28 11:03:07;;;;;;;;;;;;;;;13.36;100.00;99343.53;5010461;28;19941;-62
2023/10/28 11:05:36;;;;;;;;;;;;;;;13.26;100.00;99355.06;5024717;28;19921;-63
2023/10/28 11:08:04;;;;;;;;;;;;;;;13.23;100.00;99350.06;5020349;28;20019;-62
2023/10/28 11:10:31;;;;;;;;;;;;;;;13.24;100.00;99344.66;5030541;28;19963;-63
2023/10/28 11:12:58;;;;;;;;;;;;;;;13.33;100.00;99357.03;5010259;28;19964;-63
2023/10/28 11:15:25;;;;;;;;;;;;;;;13.49;100.00;99343.25;5030668;28;19924;-61
2023/10/28 11:17:52;;;;;;;;;;;;;;;13.68;100.00;99353.78;5024007;28;20056;-62
2023/10/28 11:20:22;;;;;;;;;;;;;;;13.81;99.63;99347.38;5005636;28;19975;-62
2023/10/28 11:22:49;;;;;;;;;;;;;;;13.93;99.30;99351.53;5006825;28;20023;-62
2023/10/28 11:25:17;;;;;;;;;;;;;;;13.98;98.90;99349.28;5002419;28;19925;-62
2023/10/28 11:27:46;;;;;;;;;;;;;;;14.00;97.85;99351.78;5024392;28;20217;-62
2023/10/28 11:30:14;;;;;;;;;;;;;;;14.07;98.35;99353.72;5027563;28;19984;-63
2023/10/28 11:32:41;;;;;;;;;;;;;;;14.08;97.89;99349.25;5023681;28;20114;-63
2023/10/28 11:35:08;;;;;;;;;;;;;;;14.10;97.94;99349.97;5029539;28;19983;-62
2023/10/28 11:37:35;;;;;;;;;;;;;;;14.01;97.32;99353.47;5030030;28;20015;-63
2023/10/28 11:40:04;;;;;;;;;;;;;;;13.81;96.56;99350.84;5020183;28;19925;-63
2023/10/28 11:42:32;;;;;;;;;;;;;;;13.71;97.72;99349.22;5008833;28;19960;-62
2023/10/28 11:45:01;;;;;;;;;;;;;;;13.72;98.25;99346.41;5027319;28;19952;-62
2023/10/28 11:47:29;;;;;;;;;;;;;;;13.63;97.67;99340.16;5021965;28;20900;-61
2023/10/28 11:49:57;;;;;;;;;;;;;;;13.59;97.95;99341.41;5022113;28;19963;-63
2023/10/28 11:52:25;;;;;;;;;;;;;;;13.65;98.38;99345.31;5019919;28;20325;-62
2023/10/28 11:54:53;;;;;;;;;;;;;;;13.71;98.57;99343.91;5029378;28;19921;-62
2023/10/28 11:57:20;;;;;;;;;;;;;;;13.62;98.87;99351.72;5021997;28;19967;-63
2023/10/28 11:59:47;;;;;;;;;;;;;;;13.49;99.54;99352.97;5023476;28;19956;-63
2023/10/28 12:02:14;;;;;;;;;;;;;;;13.30;100.00;99359.13;5011256;28;19928;-63
2023/10/28 12:04:41;;;;;;;;;;;;;;;13.11;100.00;99352.81;5029738;28;19979;-63
2023/10/28 12:07:09;;;;;;;;;;;;;;;12.91;100.00;99351.09;5024571;28;20367;-63
2023/10/28 12:09:37;;;;;;;;;;;;;;;12.85;100.00;99357.78;5021120;28;19991;-63
2023/10/28 12:12:05;;;;;;;;;;;;;;;12.84;100.00;99355.28;5035376;28;19948;-62
2023/10/28 12:14:32;;;;;;;;;;;;;;;12.87;100.00;99345.25;5018634;28;20616;-62
2023/10/28 12:16:59;;;;;;;;;;;;;;;12.97;100.00;99347.94;5026245;28;20023;-63
2023/10/28 12:19:26;;;;;;;;;;;;;;;13.01;100.00;99348.47;5022818;28;19921;-63
2023/10/28 12:21:53;;;;;;;;;;;;;;;13.02;100.00;99358.09;5026299;28;19936;-62
2023/10/28 12:24:20;;;;;;;;;;;;;;;12.95;100.00;99355.16;5053248;28;19921;-61
2023/10/28 12:26:47;;;;;;;;;;;;;;;12.80;100.00;99357.34;5035529;28;20358;-62
2023/10/28 12:29:14;;;;;;;;;;;;;;;12.75;100.00;99350.81;5033322;28;19983;-62
2023/10/28 12:31:41;;;;;;;;;;;;;;;12.75;100.00;99350.81;5017818;28;20344;-62
2023/10/28 12:34:08;;;;;;;;;;;;;;;12.74;100.00;99351.75;5031336;28;20327;-61
2023/10/28 12:36:35;;;;;;;;;;;;;;;12.75;100.00;99361.38;5021074;28;19921;-62
2023/10/28 12:39:04;;;;;;;;;;;;;;;12.74;100.00;99355.22;5030896;28;19921;-63
2023/10/28 12:41:31;;;;;;;;;;;;;;;12.76;100.00;99355.09;5023843;28;19925;-63
2023/10/28 12:43:58;;;;;;;;;;;;;;;12.68;100.00;99359.25;5029110;28;19933;-62
2023/10/28 12:46:25;;;;;;;;;;;;;;;12.56;100.00;99351.56;5026133;28;19960;-63